Bakerton, Kentucky
Current Conditions -  °F | °C
As of 6:56 AM on Saturday 20 Dec 2014 (Local Time) from KEKQ Reporting Station
Haze Haze  
Wind Chill: 30°   Ceiling: 7500
Heat Index: 30°   Visibility: 5mi
Dew Point: 27°   Wind: 0mph
Humidity: 89%   Direction: NA
Pressure: 30.27"   Gusts: NA
Location:  36.87°N, 85.31°W
Report Text: KEKQ 201256Z AUTO 00000KT 5SM BR FEW047 OVC075 M01/M03 A3027 RMK AO2 T10111027 SLP263
Loading
Personal Weather Stations






























Interactive Weather Map New forecast layout! Learn more

10-Day Weather Forecast

Advertisements
Track Severe Weather on mobile